createdAt,value
2022-09-06T00:03:19.150Z,101689.53
2022-09-06T00:08:11.435Z,101686.91
2022-09-06T00:13:03.186Z,101662.59
2022-09-06T00:17:52.589Z,101693.31
2022-09-06T00:22:42.051Z,101680.28
2022-09-06T00:27:34.308Z,101686.41
2022-09-06T00:32:23.929Z,101700.25
2022-09-06T00:37:13.346Z,101705.53
2022-09-06T00:42:02.741Z,101700.38
2022-09-06T00:46:55.777Z,101708.13
2022-09-06T00:51:45.518Z,101686.31
2022-09-06T00:56:35.738Z,101660.09
2022-09-06T01:01:25.312Z,101602.41
2022-09-06T01:06:25.502Z,101587.94
2022-09-06T01:11:24.811Z,101607.13
2022-09-06T01:16:20.107Z,101605.28
2022-09-06T01:21:19.555Z,101599.28
2022-09-06T01:26:18.617Z,101585.31
2022-09-06T01:31:17.511Z,101558.25
2022-09-06T01:36:09.666Z,101537.63
2022-09-06T01:40:59.131Z,101543.78
2022-09-06T01:45:59.737Z,101543.84
2022-09-06T01:50:56.336Z,101537.72
2022-09-06T01:55:51.795Z,101536.94
2022-09-06T02:00:45.119Z,101528.25
2022-09-06T02:05:37.670Z,101530.88
2022-09-06T02:10:34.903Z,101527.50
2022-09-06T02:15:26.290Z,101522.25
2022-09-06T02:20:17.613Z,101535.38
2022-09-06T02:25:09.868Z,101537.19
2022-09-06T02:30:03.042Z,101531.16
2022-09-06T02:34:53.878Z,101526.06
2022-09-06T02:39:43.371Z,101530.50
2022-09-06T02:44:32.780Z,101531.38
2022-09-06T02:49:24.851Z,101546.31
2022-09-06T02:54:15.019Z,101552.47
2022-09-06T02:59:05.514Z,101546.41
2022-09-06T03:03:56.228Z,101545.59
2022-09-06T03:08:48.274Z,101545.59
2022-09-06T03:13:37.753Z,101553.50
2022-09-06T03:18:27.692Z,101557.03
2022-09-06T03:23:17.145Z,101550.94
2022-09-06T03:28:09.521Z,101555.28
2022-09-06T03:33:02.621Z,101550.91
2022-09-06T03:37:52.380Z,101543.09
2022-09-06T03:42:41.811Z,101555.28
2022-09-06T03:47:33.833Z,101558.78
2022-09-06T03:52:23.241Z,101564.81
2022-09-06T03:57:12.769Z,101569.16
2022-09-06T04:02:02.192Z,101567.44
2022-09-06T04:06:54.200Z,101561.38
2022-09-06T04:11:45.190Z,101552.63
2022-09-06T04:16:34.851Z,101563.03
2022-09-06T04:21:24.246Z,101570.97
2022-09-06T04:26:16.717Z,101592.91
2022-09-06T04:31:06.680Z,101586.88
2022-09-06T04:35:57.529Z,101586.06
2022-09-06T04:40:47.100Z,101593.97
2022-09-06T04:45:39.744Z,101583.59
2022-09-06T04:50:29.263Z,101587.09
2022-09-06T04:55:29.425Z,101594.06
2022-09-06T05:00:19.112Z,101591.44
2022-09-06T05:05:11.733Z,101595.78
2022-09-06T05:10:01.460Z,101592.41
2022-09-06T05:14:50.850Z,101583.81
2022-09-06T05:19:40.375Z,101579.56
2022-09-06T05:24:32.606Z,101589.13
2022-09-06T05:29:22.002Z,101577.78
2022-09-06T05:34:13.523Z,101576.06
2022-09-06T05:39:03.021Z,101583.00
2022-09-06T05:43:55.601Z,101576.88
2022-09-06T05:48:45.106Z,101573.38
2022-09-06T05:53:38.999Z,101561.16
2022-09-06T05:58:28.725Z,101553.34
2022-09-06T06:03:20.864Z,101558.66
2022-09-06T06:08:10.369Z,101567.38
2022-09-06T06:13:00.636Z,101564.69
2022-09-06T06:17:50.017Z,101551.59
2022-09-06T06:22:42.174Z,101550.69
2022-09-06T06:27:34.093Z,101533.19
2022-09-06T06:32:23.504Z,101534.84
2022-09-06T06:37:12.933Z,101522.63
2022-09-06T06:42:04.954Z,101530.41
2022-09-06T06:47:10.453Z,101528.66
2022-09-06T06:52:00.074Z,101523.34
2022-09-06T06:56:52.381Z,101538.16
2022-09-06T07:01:45.025Z,101540.66
2022-09-06T07:11:44.958Z,101543.16
2022-09-06T07:16:34.474Z,101529.13
2022-09-06T07:21:43.421Z,101527.38
2022-09-06T07:26:33.736Z,101530.78
2022-09-06T07:36:35.599Z,101515.69
2022-09-06T07:41:26.022Z,101522.47
2022-09-06T07:46:16.307Z,101517.94
2022-09-06T07:51:06.820Z,101522.13
2022-09-06T07:55:58.994Z,101524.63
2022-09-06T08:00:48.470Z,101534.13
2022-09-06T08:10:52.408Z,101534.72
2022-09-06T08:15:44.969Z,101526.63
2022-09-06T08:20:34.785Z,101540.47
2022-09-06T08:25:26.081Z,101533.22
2022-09-06T08:30:15.994Z,101539.03
2022-09-06T08:35:08.502Z,101534.28
2022-09-06T08:39:58.662Z,101540.00
2022-09-06T08:44:57.556Z,101535.13
2022-09-06T08:49:48.531Z,101532.75
2022-09-06T08:54:42.840Z,101524.47
2022-09-06T08:59:36.766Z,101535.41
2022-09-06T09:04:28.806Z,101535.00
2022-09-06T09:09:19.089Z,101532.59
2022-09-06T09:14:15.297Z,101543.31
2022-09-06T09:19:05.273Z,101545.97
2022-09-06T09:23:56.079Z,101551.16
2022-09-06T09:29:00.463Z,101549.44
2022-09-06T09:33:52.466Z,101549.09
2022-09-06T09:38:45.289Z,101546.03
2022-09-06T09:43:36.431Z,101551.31
2022-09-06T09:48:28.201Z,101550.59
2022-09-06T09:53:21.654Z,101553.53
2022-09-06T09:58:18.560Z,101560.88
2022-09-06T10:03:14.419Z,101555.78
2022-09-06T10:08:04.004Z,101558.72
2022-09-06T10:13:08.928Z,101554.09
2022-09-06T10:17:58.382Z,101564.16
2022-09-06T10:22:54.458Z,101559.56
2022-09-06T10:28:08.151Z,101561.47
2022-09-06T10:33:05.507Z,101562.00
2022-09-06T10:38:03.973Z,101569.66
2022-09-06T10:42:54.588Z,101574.72
2022-09-06T10:47:57.451Z,101580.16
2022-09-06T10:52:51.972Z,101578.44
2022-09-06T11:13:24.169Z,101570.34
2022-09-06T11:18:18.691Z,101565.06
2022-09-06T11:23:20.354Z,101567.38
2022-09-06T11:28:11.867Z,101573.03
2022-09-06T11:33:22.247Z,101580.84
2022-09-06T11:38:21.898Z,101583.41
2022-09-06T11:43:17.265Z,101588.94
2022-09-06T11:48:21.615Z,101580.31
2022-09-06T11:53:20.207Z,101597.38
2022-09-06T11:58:13.736Z,101592.06
2022-09-06T12:08:29.809Z,101587.16
2022-09-06T12:13:38.756Z,101572.91
2022-09-06T12:18:47.557Z,101567.94
2022-09-06T12:23:46.438Z,101570.75
2022-09-06T12:28:38.077Z,101556.84
2022-09-06T12:33:31.476Z,101554.81
2022-09-06T12:38:25.847Z,101561.53
2022-09-06T12:43:20.280Z,101561.53
2022-09-06T12:48:11.789Z,101545.94
2022-09-06T12:53:03.219Z,101537.19
2022-09-06T12:57:55.138Z,101539.59
2022-09-06T13:02:53.011Z,101538.44
2022-09-06T13:07:43.810Z,101528.75
2022-09-06T13:12:35.625Z,101528.03
2022-09-06T13:17:26.303Z,101534.81
2022-09-06T13:22:39.056Z,101533.91
2022-09-06T13:27:29.389Z,101527.03
2022-09-06T13:32:18.846Z,101530.00
2022-09-06T13:37:10.226Z,101541.03
2022-09-06T13:42:03.908Z,101535.34
2022-09-06T13:46:56.560Z,101526.75
2022-09-06T13:51:46.169Z,101521.53
2022-09-06T13:56:35.532Z,101520.59
2022-09-06T14:01:28.096Z,101523.16
2022-09-06T14:06:18.356Z,101512.88
2022-09-06T14:11:08.730Z,101509.53
2022-09-06T14:15:58.574Z,101499.59
2022-09-06T14:20:58.735Z,101496.91
2022-09-06T14:25:48.187Z,101491.94
2022-09-06T14:30:38.234Z,101486.09
2022-09-06T14:35:27.842Z,101489.91
2022-09-06T14:40:20.245Z,101480.91
2022-09-06T14:45:10.546Z,101473.50
2022-09-06T14:50:00.548Z,101477.47
2022-09-06T14:54:49.983Z,101469.13
2022-09-06T14:59:42.016Z,101470.28
2022-09-06T15:04:33.111Z,101471.84
2022-09-06T15:09:23.207Z,101463.94
2022-09-06T15:14:15.955Z,101468.50
2022-09-06T15:19:08.916Z,101462.44
2022-09-06T15:23:58.845Z,101459.72
2022-09-06T15:28:48.461Z,101452.75
2022-09-06T15:33:39.002Z,101434.84
2022-09-06T15:38:31.155Z,101427.44
2022-09-06T15:43:20.583Z,101430.16
2022-09-06T15:48:10.592Z,101436.16
2022-09-06T15:53:00.537Z,101431.88
2022-09-06T15:57:52.576Z,101432.72
2022-09-06T16:02:42.692Z,101423.22
2022-09-06T16:07:32.793Z,101423.53
2022-09-06T16:12:22.841Z,101419.47
2022-09-06T16:17:18.654Z,101419.78
2022-09-06T16:22:08.859Z,101417.56
2022-09-06T16:26:58.356Z,101412.56
2022-09-06T16:31:48.252Z,101410.53
2022-09-06T16:36:40.675Z,101414.69
2022-09-06T16:41:31.511Z,101405.25
2022-09-06T16:46:21.267Z,101399.25
2022-09-06T16:51:11.353Z,101408.13
2022-09-06T16:56:04.560Z,101399.75
2022-09-06T17:00:54.077Z,101395.81
2022-09-06T17:05:43.785Z,101392.75
2022-09-06T17:10:33.283Z,101387.88
2022-09-06T17:15:25.557Z,101385.38
2022-09-06T17:20:15.789Z,101389.81
2022-09-06T17:25:05.325Z,101388.97
2022-09-06T17:29:54.702Z,101377.72
2022-09-06T17:34:47.035Z,101372.00
2022-09-06T17:39:36.725Z,101360.72
2022-09-06T17:44:27.584Z,101360.84
2022-09-06T17:49:18.254Z,101354.84
2022-09-06T17:54:10.898Z,101355.00
2022-09-06T17:59:01.845Z,101351.63
2022-09-06T18:03:51.488Z,101361.50
2022-09-06T18:08:41.869Z,101351.03
2022-09-06T18:13:34.064Z,101343.34
2022-09-06T18:18:23.544Z,101324.97
2022-09-06T18:23:14.175Z,101323.44
2022-09-06T18:28:04.325Z,101322.84
2022-09-06T18:32:57.198Z,101313.34
2022-09-06T18:37:47.139Z,101323.41
2022-09-06T18:42:37.886Z,101326.97
2022-09-06T18:47:30.760Z,101327.09
2022-09-06T18:52:23.925Z,101315.09
2022-09-06T18:57:16.128Z,101314.38
2022-09-06T19:02:06.537Z,101301.38
2022-09-06T19:06:56.625Z,101292.00
2022-09-06T19:11:51.753Z,101292.28
2022-09-06T19:16:42.231Z,101285.41
2022-09-06T19:21:32.342Z,101279.34
2022-09-06T19:26:23.754Z,101265.47
2022-09-06T19:31:17.278Z,101271.03
2022-09-06T19:36:12.234Z,101270.31
2022-09-06T19:41:06.758Z,101271.38
2022-09-06T19:45:58.733Z,101256.81
2022-09-06T19:50:51.595Z,101264.78
2022-09-06T19:55:42.061Z,101249.94
2022-09-06T20:00:35.516Z,101238.53
2022-09-06T20:05:25.941Z,101243.19
2022-09-06T20:10:18.604Z,101225.84
2022-09-06T20:15:09.289Z,101208.84
2022-09-06T20:19:58.837Z,101192.34
2022-09-06T20:24:48.277Z,101186.31
2022-09-06T20:29:40.299Z,101169.59
2022-09-06T20:34:30.684Z,101157.53
2022-09-06T20:39:20.160Z,101154.94
2022-09-06T20:44:09.627Z,101149.81
2022-09-06T20:49:04.570Z,101174.47
2022-09-06T20:53:55.632Z,101192.09
2022-09-06T20:58:45.640Z,101161.09
2022-09-06T21:03:35.299Z,101149.84
2022-09-06T21:08:31.741Z,101133.25
2022-09-06T21:13:23.847Z,101165.41
2022-09-06T21:18:13.528Z,101231.69
2022-09-06T21:23:03.082Z,101410.88
2022-09-06T21:27:55.881Z,101368.31
2022-09-06T21:32:45.548Z,101404.00
2022-09-06T21:37:35.229Z,101443.75
2022-09-06T21:42:25.806Z,101456.53
2022-09-06T21:47:18.596Z,101438.66
2022-09-06T21:52:08.960Z,101444.00
2022-09-06T21:56:59.031Z,101445.63
2022-09-06T22:01:49.733Z,101457.38
2022-09-06T22:06:43.039Z,101433.44
2022-09-06T22:11:34.200Z,101419.22
2022-09-06T22:16:25.205Z,101436.16
2022-09-06T22:21:18.746Z,101412.03
2022-09-06T22:26:13.698Z,101397.38
2022-09-06T22:31:04.416Z,101396.56
2022-09-06T22:35:55.100Z,101389.59
2022-09-06T22:40:45.529Z,101386.94
2022-09-06T22:45:38.374Z,101425.28
2022-09-06T22:50:28.808Z,101442.59
2022-09-06T22:55:19.002Z,101458.19
2022-09-06T23:00:09.834Z,101444.03
2022-09-06T23:05:02.617Z,101433.63
2022-09-06T23:09:52.679Z,101417.19
2022-09-06T23:14:42.794Z,101412.09
2022-09-06T23:19:32.815Z,101400.94
2022-09-06T23:24:25.634Z,101401.06
2022-09-06T23:29:15.872Z,101400.22
2022-09-06T23:34:06.444Z,101374.06
2022-09-06T23:38:56.846Z,101365.38
2022-09-06T23:43:49.729Z,101374.09
2022-09-06T23:48:39.870Z,101390.66
2022-09-06T23:53:30.134Z,101402.81
2022-09-06T23:58:20.528Z,101399.56
